Time;durP1;ratioP1;P1;durP2;ratioP2;P2;SDS_P1;SDS_P2;PMS_P1;PMS_P2;Temp;Humidity;BMP_temperature;BMP_pressure;BME280_temperature;BME280_humidity;BME280_pressure;Samples;Min_cycle;Max_cycle;Signal;HPM_P1;HPM_P2
2021/03/27 00:01:00;;;;;;;13.65;10.10;;;14.80;52.50;;;;;;5000764;28;20695;-67
2021/03/27 00:03:35;;;;;;;17.42;11.23;;;14.90;52.90;;;;;;5004888;28;20046;-67
2021/03/27 00:06:23;;;;;;;14.20;10.45;;;14.80;52.40;;;;;;5005645;28;20431;-68
2021/03/27 00:09:00;;;;;;;14.02;11.05;;;14.90;52.70;;;;;;4978576;28;20050;-68
2021/03/27 00:11:46;;;;;;;13.75;10.77;;;14.80;53.30;;;;;;4999070;28;20061;-68
2021/03/27 00:14:17;;;;;;;11.82;9.43;;;14.80;53.70;;;;;;4996473;28;20049;-68
2021/03/27 00:17:00;;;;;;;16.45;11.00;;;14.80;53.20;;;;;;5001159;28;20407;-68
2021/03/27 00:19:52;;;;;;;15.38;10.88;;;14.90;53.10;;;;;;4999725;28;20049;-68
2021/03/27 00:22:21;;;;;;;15.93;12.13;;;15.00;53.60;;;;;;4981228;28;20126;-67
2021/03/27 00:24:56;;;;;;;15.45;11.63;;;15.00;53.00;;;;;;5002292;28;20033;-67
2021/03/27 00:27:28;;;;;;;13.45;11.80;;;14.90;53.60;;;;;;5002262;28;20053;-67
2021/03/27 00:30:04;;;;;;;14.98;11.82;;;14.90;53.10;;;;;;5004590;28;20557;-68
2021/03/27 00:32:35;;;;;;;16.17;11.48;;;14.90;53.20;;;;;;5003294;28;23544;-69
2021/03/27 00:35:07;;;;;;;15.80;11.10;;;14.90;52.90;;;;;;5005073;28;20041;-68
2021/03/27 00:37:33;;;;;;;16.52;12.98;;;14.80;53.20;;;;;;4998184;28;20069;-69
2021/03/27 00:40:07;;;;;;;17.77;12.93;;;14.70;53.40;;;;;;5005371;28;20041;-68
2021/03/27 00:42:43;;;;;;;15.40;12.40;;;14.90;53.60;;;;;;5005910;28;20450;-68
2021/03/27 00:45:15;;;;;;;18.85;13.07;;;15.00;53.30;;;;;;5004548;28;20092;-68
2021/03/27 00:47:45;;;;;;;14.48;12.02;;;14.90;53.30;;;;;;5010800;28;20492;-68
2021/03/27 00:50:23;;;;;;;15.27;13.10;;;14.80;54.00;;;;;;5008324;28;20034;-68
2021/03/27 00:52:53;;;;;;;15.88;12.85;;;14.90;53.90;;;;;;5006435;28;20556;-68
2021/03/27 00:55:34;;;;;;;16.83;12.05;;;14.80;53.40;;;;;;5004023;28;20133;-68
2021/03/27 00:58:12;;;;;;;18.20;12.43;;;14.90;53.40;;;;;;5010097;28;20038;-68
2021/03/27 01:00:48;;;;;;;17.38;13.02;;;15.00;53.50;;;;;;5006453;28;20444;-68
2021/03/27 01:03:20;;;;;;;16.85;12.73;;;15.00;53.50;;;;;;5009014;28;20049;-68
2021/03/27 01:05:49;;;;;;;17.40;12.60;;;14.80;53.40;;;;;;5006709;28;20046;-68
2021/03/27 01:08:18;;;;;;;16.45;11.93;;;14.80;54.20;;;;;;5010187;28;20044;-67
2021/03/27 01:11:00;;;;;;;14.68;12.80;;;14.90;53.70;;;;;;5007441;28;20060;-68
2021/03/27 01:13:34;;;;;;;13.65;12.20;;;14.90;53.90;;;;;;5006602;28;20042;-68
2021/03/27 01:16:03;;;;;;;14.35;12.32;;;14.90;53.90;;;;;;5004445;28;20811;-68
2021/03/27 01:18:35;;;;;;;15.63;12.35;;;15.00;53.60;;;;;;5005759;28;20535;-67
2021/03/27 01:21:07;;;;;;;16.73;12.10;;;15.00;53.90;;;;;;4997323;28;20042;-67
2021/03/27 01:23:35;;;;;;;16.30;12.13;;;15.00;53.70;;;;;;5003313;28;20041;-67
2021/03/27 01:26:07;;;;;;;17.08;12.05;;;14.80;53.90;;;;;;5002736;28;20038;-67
2021/03/27 01:28:52;;;;;;;15.60;11.98;;;14.90;54.10;;;;;;5005242;28;20068;-67
2021/03/27 01:31:30;;;;;;;12.85;11.52;;;14.90;53.90;;;;;;4994023;28;20037;-67
2021/03/27 01:34:01;;;;;;;15.23;12.23;;;14.90;54.40;;;;;;4994208;28;20053;-68
2021/03/27 01:36:41;;;;;;;18.55;11.90;;;15.00;54.20;;;;;;5006580;28;20116;-67
2021/03/27 01:39:06;;;;;;;15.95;11.25;;;15.00;54.20;;;;;;5005595;28;20046;-67
2021/03/27 01:41:41;;;;;;;15.20;11.60;;;14.90;53.60;;;;;;5005846;28;20065;-67
2021/03/27 01:44:28;;;;;;;15.90;11.93;;;14.80;54.40;;;;;;5010721;28;20033;-67
2021/03/27 01:47:03;;;;;;;13.20;11.05;;;14.80;54.30;;;;;;4981046;28;20044;-67
2021/03/27 01:49:38;;;;;;;16.38;11.40;;;14.80;54.80;;;;;;5008079;28;20511;-67
2021/03/27 01:52:03;;;;;;;20.50;12.25;;;14.70;54.50;;;;;;5002729;28;20040;-67
2021/03/27 01:54:44;;;;;;;17.20;11.80;;;14.80;54.40;;;;;;5006443;28;20029;-67
2021/03/27 01:57:15;;;;;;;18.45;12.10;;;14.90;54.70;;;;;;5004393;28;20422;-66
2021/03/27 01:59:52;;;;;;;15.95;12.05;;;14.90;54.20;;;;;;5005495;28;20038;-67
2021/03/27 02:02:26;;;;;;;15.68;11.52;;;14.90;54.40;;;;;;5005153;28;20054;-68
2021/03/27 02:05:01;;;;;;;14.27;11.13;;;14.80;54.70;;;;;;5009804;28;20046;-67
2021/03/27 02:07:40;;;;;;;15.77;12.23;;;14.80;54.90;;;;;;5006082;28;20627;-67
2021/03/27 02:10:16;;;;;;;13.82;10.55;;;14.90;55.00;;;;;;5008152;28;20500;-67
2021/03/27 02:12:54;;;;;;;14.05;10.73;;;14.80;54.70;;;;;;5002950;28;20054;-66
2021/03/27 02:16:00;;;;;;;18.80;13.05;;;14.90;55.00;;;;;;5006890;28;20045;-67
2021/03/27 02:18:36;;;;;;;15.93;11.30;;;14.80;54.80;;;;;;4961936;28;20145;-66
2021/03/27 02:21:11;;;;;;;15.45;10.75;;;14.60;55.30;;;;;;5011941;28;20113;-67
2021/03/27 02:23:36;;;;;;;16.23;11.15;;;14.80;55.20;;;;;;4999548;28;20084;-67
2021/03/27 02:26:08;;;;;;;13.63;11.65;;;14.80;55.00;;;;;;5006864;28;20033;-67
2021/03/27 02:28:40;;;;;;;14.27;11.10;;;14.80;55.20;;;;;;5000544;28;20045;-67
2021/03/27 02:31:23;;;;;;;18.38;11.98;;;14.80;55.20;;;;;;5004560;28;20117;-67
2021/03/27 02:33:58;;;;;;;12.90;11.13;;;14.80;55.50;;;;;;4973687;28;20088;-67
2021/03/27 02:36:29;;;;;;;;;;;14.80;54.90;;;;;;5002333;28;20427;-67
2021/03/27 02:39:00;;;;;;;16.75;11.45;;;14.80;55.90;;;;;;4998048;28;19945;-67
2021/03/27 02:41:43;;;;;;;13.73;11.30;;;14.90;55.00;;;;;;5001745;28;20050;-67
2021/03/27 02:44:37;;;;;;;17.40;11.23;;;14.90;55.10;;;;;;5008802;28;20045;-66
2021/03/27 02:47:22;;;;;;;15.15;11.45;;;14.90;55.30;;;;;;4997722;28;20065;-67
2021/03/27 02:49:51;;;;;;;14.13;10.82;;;14.90;55.20;;;;;;4978926;28;20057;-67
2021/03/27 02:52:50;;;;;;;16.17;11.38;;;14.80;54.80;;;;;;5001015;28;20072;-66
2021/03/27 02:55:38;;;;;;;14.25;11.13;;;15.00;55.00;;;;;;4976340;28;20034;-65
2021/03/27 02:58:24;;;;;;;15.13;11.23;;;14.90;55.10;;;;;;5001189;28;20029;-66
2021/03/27 03:01:06;;;;;;;13.73;11.20;;;15.00;54.60;;;;;;4977636;28;20092;-65
2021/03/27 03:03:45;;;;;;;14.25;11.02;;;14.90;55.10;;;;;;4998178;28;20562;-66
2021/03/27 03:06:45;;;;;;;17.13;11.55;;;14.90;54.50;;;;;;5001334;28;20080;-65
2021/03/27 03:09:55;;;;;;;17.60;11.30;;;14.90;54.80;;;;;;4993938;28;20123;-66
2021/03/27 03:12:41;;;;;;;14.40;11.93;;;14.90;54.70;;;;;;4871666;29;20126;-66
2021/03/27 03:15:23;;;;;;;16.00;11.98;;;15.00;54.20;;;;;;4903966;29;20495;-66
2021/03/27 03:18:10;;;;;;;16.05;13.05;;;14.90;55.10;;;;;;4949498;28;20034;-66
2021/03/27 03:20:54;;;;;;;15.40;11.30;;;14.90;54.20;;;;;;4993903;28;20161;-66
2021/03/27 03:23:48;;;;;;;16.88;11.73;;;15.10;54.50;;;;;;4976591;28;20073;-66
2021/03/27 03:26:32;;;;;;;15.75;11.55;;;15.00;54.10;;;;;;4961513;28;20486;-66
2021/03/27 03:29:13;;;;;;;14.73;10.43;;;14.90;54.80;;;;;;4995271;28;20045;-66
2021/03/27 03:31:50;;;;;;;14.77;12.18;;;14.80;54.50;;;;;;4995375;28;20094;-66
2021/03/27 03:34:53;;;;;;;16.10;12.10;;;14.80;54.40;;;;;;5005608;28;20671;-67
2021/03/27 03:37:39;;;;;;;15.48;11.38;;;14.70;54.50;;;;;;4963977;28;20109;-66
2021/03/27 03:40:14;;;;;;;16.92;11.85;;;14.80;54.60;;;;;;4999077;28;20065;-66
2021/03/27 03:42:55;;;;;;;12.98;11.60;;;14.80;54.40;;;;;;5001349;28;20050;-65
2021/03/27 03:45:39;;;;;;;15.88;11.38;;;14.70;54.90;;;;;;4996361;28;20666;-67
2021/03/27 03:48:21;;;;;;;17.08;11.63;;;14.60;54.90;;;;;;4996356;28;20030;-67
2021/03/27 03:51:09;;;;;;;18.20;11.25;;;14.70;54.90;;;;;;4977740;28;20121;-67
2021/03/27 03:53:53;;;;;;;15.98;11.27;;;14.70;54.40;;;;;;5005375;28;20042;-67
2021/03/27 03:56:46;;;;;;;15.68;10.82;;;14.70;55.50;;;;;;4961047;28;20092;-67
2021/03/27 03:59:23;;;;;;;16.60;11.50;;;14.70;54.50;;;;;;5001649;28;20060;-66
2021/03/27 04:02:01;;;;;;;13.43;12.02;;;14.70;54.90;;;;;;4996687;28;20567;-67
2021/03/27 04:04:39;;;;;;;14.00;11.77;;;14.70;54.60;;;;;;4995461;28;20040;-66
2021/03/27 04:07:08;;;;;;;17.40;11.70;;;14.70;54.40;;;;;;4996688;28;20026;-66
2021/03/27 04:09:49;;;;;;;13.88;10.70;;;14.60;54.90;;;;;;5009095;28;20057;-66
2021/03/27 04:12:31;;;;;;;14.25;11.05;;;14.70;54.90;;;;;;4961893;28;20080;-67
2021/03/27 04:15:12;;;;;;;11.20;10.10;;;14.60;55.10;;;;;;5001001;28;20046;-67
2021/03/27 04:17:58;;;;;;;17.25;11.38;;;14.70;55.20;;;;;;4998643;28;20045;-67
2021/03/27 04:20:48;;;;;;;14.40;10.63;;;14.70;55.60;;;;;;4981703;28;20038;-67
2021/03/27 04:23:32;;;;;;;14.50;10.88;;;14.70;55.10;;;;;;4961222;28;20100;-66
2021/03/27 04:26:27;;;;;;;15.15;11.48;;;14.70;55.40;;;;;;5001978;28;20052;-66
2021/03/27 04:29:15;;;;;;;14.02;10.73;;;14.70;55.10;;;;;;4981123;28;20038;-67
2021/03/27 04:32:28;;;;;;;16.38;10.75;;;14.60;55.10;;;;;;4997674;28;20125;-66
2021/03/27 04:35:08;;;;;;;14.68;11.52;;;14.60;54.80;;;;;;4889516;29;20068;-66
2021/03/27 04:37:43;;;;;;;14.50;10.85;;;14.60;54.90;;;;;;4999336;28;20053;-66
2021/03/27 04:40:16;;;;;;;14.60;10.90;;;14.60;54.90;;;;;;4999050;28;20037;-62
2021/03/27 04:42:50;;;;;;;12.35;9.85;;;14.60;54.80;;;;;;4999635;28;20065;-67
2021/03/27 04:45:24;;;;;;;12.27;10.60;;;14.50;54.90;;;;;;4995375;28;20061;-66
2021/03/27 04:48:12;;;;;;;15.45;10.90;;;14.70;55.00;;;;;;4996921;28;20656;-67
2021/03/27 04:51:20;;;;;;;14.35;10.15;;;14.70;54.50;;;;;;5004672;28;20165;-67
2021/03/27 04:53:57;;;;;;;13.95;10.30;;;14.80;54.40;;;;;;4956208;28;20408;-66
2021/03/27 04:56:31;;;;;;;12.30;11.05;;;14.60;54.70;;;;;;4999370;28;20034;-67
2021/03/27 04:59:21;;;;;;;15.65;10.63;;;14.60;54.30;;;;;;4996588;28;20126;-67
2021/03/27 05:01:54;;;;;;;17.35;11.30;;;14.60;54.40;;;;;;4979587;28;20056;-67
2021/03/27 05:04:41;;;;;;;15.82;11.15;;;14.50;54.80;;;;;;4995130;28;20057;-66
2021/03/27 05:07:54;;;;;;;14.15;11.88;;;14.60;55.10;;;;;;5005224;28;20197;-65
2021/03/27 05:10:44;;;;;;;14.32;10.65;;;14.60;54.80;;;;;;4900449;28;20066;-66
2021/03/27 05:13:14;;;;;;;20.00;11.52;;;14.70;54.70;;;;;;4941939;28;20106;-67
2021/03/27 05:15:50;;;;;;;15.68;11.30;;;14.70;54.10;;;;;;4986343;28;20497;-66
2021/03/27 05:18:27;;;;;;;13.88;11.50;;;14.70;54.10;;;;;;5005397;28;20049;-66
2021/03/27 05:20:59;;;;;;;13.60;11.27;;;14.70;54.10;;;;;;5006939;28;20037;-67
2021/03/27 05:23:48;;;;;;;17.17;11.40;;;14.70;53.90;;;;;;5003084;28;20084;-67
2021/03/27 05:26:32;;;;;;;15.05;11.48;;;14.70;53.90;;;;;;4976594;28;20080;-66
2021/03/27 05:29:13;;;;;;;14.05;11.15;;;14.80;54.20;;;;;;4999608;28;20086;-68
2021/03/27 05:31:54;;;;;;;14.93;12.27;;;14.70;53.50;;;;;;5005236;28;20045;-66
2021/03/27 05:34:46;;;;;;;17.95;11.27;;;14.80;54.00;;;;;;4994010;28;20718;-67
2021/03/27 05:37:30;;;;;;;15.35;11.90;;;14.70;53.80;;;;;;4990879;28;20034;-67
2021/03/27 05:40:13;;;;;;;15.65;10.82;;;14.60;54.20;;;;;;5004291;28;20045;-67
2021/03/27 05:43:06;;;;;;;16.30;12.02;;;14.60;54.00;;;;;;5002238;28;20061;-65
2021/03/27 05:45:44;;;;;;;16.30;11.57;;;14.60;54.20;;;;;;4999724;28;20435;-67
2021/03/27 05:48:28;;;;;;;17.85;12.35;;;14.70;54.30;;;;;;5008217;28;20034;-67
2021/03/27 05:51:32;;;;;;;19.65;12.65;;;14.70;54.40;;;;;;4999913;28;20037;-67
2021/03/27 05:54:07;;;;;;;17.63;13.55;;;14.70;55.10;;;;;;4986039;28;20041;-67
2021/03/27 05:56:54;;;;;;;16.02;12.55;;;14.70;54.30;;;;;;5001164;28;20046;-67
2021/03/27 05:59:40;;;;;;;17.05;13.15;;;14.70;54.40;;;;;;4965430;28;20045;-66
2021/03/27 06:02:12;;;;;;;18.60;14.00;;;14.80;54.20;;;;;;5002859;28;20049;-67
2021/03/27 06:04:52;;;;;;;18.08;13.57;;;14.70;54.30;;;;;;5001241;28;20043;-67
2021/03/27 06:08:03;;;;;;;18.27;12.77;;;14.80;54.90;;;;;;4965478;28;20041;-67
2021/03/27 06:11:06;;;;;;;20.67;14.20;;;14.70;55.30;;;;;;4973755;28;20050;-67
2021/03/27 06:13:37;;;;;;;18.48;13.02;;;14.70;54.60;;;;;;4983103;28;20046;-67
2021/03/27 06:16:11;;;;;;;18.15;14.32;;;14.70;55.00;;;;;;5004197;28;20495;-66
2021/03/27 06:18:58;;;;;;;19.85;14.13;;;14.70;54.70;;;;;;5005307;28;20050;-66
2021/03/27 06:21:42;;;;;;;18.75;13.73;;;14.70;55.10;;;;;;4980243;28;20084;-66
2021/03/27 06:24:08;;;;;;;17.10;13.55;;;14.60;55.30;;;;;;5007767;28;20042;-66
2021/03/27 06:26:33;;;;;;;20.25;14.95;;;14.60;55.10;;;;;;5002916;28;20147;-66
2021/03/27 06:29:21;;;;;;;19.75;14.55;;;14.70;55.00;;;;;;5008015;28;20038;-66
2021/03/27 06:32:06;;;;;;;19.90;15.10;;;14.70;55.60;;;;;;4977074;28;20435;-67
2021/03/27 06:34:34;;;;;;;22.45;16.00;;;14.80;55.80;;;;;;5002903;28;20376;-67
2021/03/27 06:37:00;;;;;;;22.13;16.52;;;14.80;55.00;;;;;;5000259;28;20450;-67
2021/03/27 06:39:38;;;;;;;21.20;17.23;;;14.90;55.00;;;;;;5005073;28;20034;-67
2021/03/27 06:42:22;;;;;;;23.58;18.65;;;14.90;55.50;;;;;;4997072;28;20145;-67
2021/03/27 06:45:14;;;;;;;22.47;18.47;;;14.90;55.40;;;;;;4977571;28;20045;-67
2021/03/27 06:48:17;;;;;;;24.00;19.60;;;15.00;55.90;;;;;;4998596;28;20038;-67
2021/03/27 06:54:29;;;;;;;24.00;20.02;;;14.90;55.70;;;;;;4964309;28;20045;-66
2021/03/27 06:57:20;;;;;;;27.15;19.63;;;14.80;56.00;;;;;;4982295;28;20045;-66
2021/03/27 07:00:36;;;;;;;30.08;20.95;;;14.80;56.20;;;;;;4982330;28;20044;-66
2021/03/27 07:03:23;;;;;;;25.50;20.63;;;15.00;56.10;;;;;;4947039;28;20042;-66
2021/03/27 07:06:10;;;;;;;28.77;21.10;;;14.90;55.40;;;;;;4982884;28;20045;-66
2021/03/27 07:08:42;;;;;;;26.25;21.02;;;14.80;55.90;;;;;;5000506;28;20079;-66
2021/03/27 07:11:22;;;;;;;31.38;22.98;;;14.80;55.50;;;;;;5007744;28;20088;-66
2021/03/27 07:14:16;;;;;;;27.30;22.10;;;14.80;56.20;;;;;;4939354;28;20135;-66
2021/03/27 07:17:10;;;;;;;25.70;22.90;;;14.80;56.20;;;;;;4968637;28;20434;-66
2021/03/27 07:20:06;;;;;;;27.23;20.85;;;14.70;56.30;;;;;;4958159;28;20046;-67
2021/03/27 07:23:05;;;;;;;29.95;22.17;;;14.80;56.20;;;;;;4938617;28;20111;-67
2021/03/27 07:25:54;;;;;;;30.52;21.65;;;14.80;55.90;;;;;;4922525;28;20035;-67
2021/03/27 07:28:28;;;;;;;25.85;21.95;;;14.90;56.50;;;;;;4943488;28;20038;-65
2021/03/27 07:31:39;;;;;;;24.40;20.70;;;14.80;55.80;;;;;;4966379;28;20023;-66
2021/03/27 07:34:29;;;;;;;28.33;22.90;;;14.90;56.20;;;;;;4942030;28;20038;-66
2021/03/27 07:37:10;;;;;;;27.15;23.08;;;14.90;55.70;;;;;;4946870;28;20047;-66
2021/03/27 07:39:59;;;;;;;28.33;21.90;;;15.00;55.60;;;;;;4978301;28;20061;-66
2021/03/27 07:42:31;;;;;;;28.10;21.80;;;14.90;55.20;;;;;;4945936;28;20070;-67
2021/03/27 07:45:20;;;;;;;24.90;21.02;;;15.10;55.40;;;;;;4963859;28;20054;-65
2021/03/27 07:48:05;;;;;;;26.17;20.83;;;15.10;55.20;;;;;;4948701;28;20390;-66
2021/03/27 07:50:55;;;;;;;27.30;20.85;;;15.20;55.40;;;;;;4964728;28;20042;-67
2021/03/27 07:53:38;;;;;;;23.08;20.35;;;15.20;55.20;;;;;;4946967;28;20493;-67
2021/03/27 07:56:25;;;;;;;30.42;22.77;;;15.10;55.60;;;;;;4964588;28;20045;-66
2021/03/27 07:58:56;;;;;;;30.45;22.48;;;15.20;55.10;;;;;;4945736;28;20568;-67
2021/03/27 08:01:46;;;;;;;30.95;23.02;;;15.20;54.90;;;;;;4967725;28;20085;-66
2021/03/27 08:04:20;;;;;;;27.80;20.73;;;15.30;55.00;;;;;;4966397;28;20039;-65
2021/03/27 08:06:55;;;;;;;;;;;15.30;54.70;;;;;;4959671;28;20039;-66
2021/03/27 08:10:11;;;;;;;26.48;20.40;;;15.20;55.10;;;;;;4962355;28;19914;-66
2021/03/27 08:12:43;;;;;;;27.55;20.88;;;15.20;55.00;;;;;;4949763;28;20054;-66
2021/03/27 08:15:45;;;;;;;26.80;22.08;;;15.20;54.10;;;;;;5000938;28;20030;-68
2021/03/27 08:18:52;;;;;;;26.73;21.13;;;15.30;55.00;;;;;;4955543;28;20038;-65
2021/03/27 08:21:58;;;;;;;29.35;22.25;;;15.30;54.20;;;;;;4979016;28;20468;-67
2021/03/27 08:24:29;;;;;;;28.83;21.70;;;15.30;54.70;;;;;;4982045;28;20590;-67
2021/03/27 08:27:01;;;;;;;30.17;22.05;;;15.30;54.20;;;;;;5000686;28;20037;-66
2021/03/27 08:29:44;;;;;;;28.13;23.15;;;15.40;53.90;;;;;;5002755;28;20049;-65
2021/03/27 08:33:04;;;;;;;25.73;22.10;;;15.50;53.60;;;;;;5003871;28;20045;-65
2021/03/27 08:35:53;;;;;;;29.08;22.85;;;15.60;53.70;;;;;;4975851;28;20443;-65
2021/03/27 08:39:14;;;;;;;26.25;21.65;;;15.60;53.70;;;;;;4942971;28;20044;-65
2021/03/27 08:41:43;;;;;;;24.58;20.85;;;15.60;53.60;;;;;;4966111;28;20057;-64
2021/03/27 08:44:27;;;;;;;27.33;21.33;;;15.50;52.80;;;;;;5005398;28;20042;-66
2021/03/27 08:47:38;;;;;;;27.90;22.13;;;15.70;52.80;;;;;;4979982;28;20061;-66
2021/03/27 08:50:16;;;;;;;27.58;23.10;;;15.70;52.90;;;;;;4981860;28;20062;-66
2021/03/27 08:52:56;;;;;;;28.45;22.10;;;15.50;52.90;;;;;;4997564;28;20034;-66
2021/03/27 08:55:51;;;;;;;29.05;22.88;;;15.60;52.90;;;;;;5003847;28;20042;-66
2021/03/27 08:58:17;;;;;;;27.40;21.40;;;15.70;53.00;;;;;;4975955;28;20049;-66
2021/03/27 09:01:07;;;;;;;29.27;23.30;;;15.60;52.80;;;;;;4999653;28;20042;-66
2021/03/27 09:03:44;;;;;;;29.80;22.05;;;15.60;52.80;;;;;;5002543;28;20100;-67
2021/03/27 09:06:37;;;;;;;27.42;23.52;;;15.70;52.50;;;;;;5002779;28;20069;-64
2021/03/27 09:09:24;;;;;;;30.42;23.73;;;15.70;52.40;;;;;;5004076;28;20383;-66
2021/03/27 09:12:27;;;;;;;33.08;24.27;;;15.80;52.50;;;;;;4987190;28;20058;-67
2021/03/27 09:15:10;;;;;;;29.50;23.13;;;15.90;53.00;;;;;;4977041;28;20050;-66
2021/03/27 09:18:00;;;;;;;32.83;25.45;;;15.90;52.30;;;;;;5004424;28;20038;-66
2021/03/27 09:20:48;;;;;;;35.40;26.40;;;15.90;52.20;;;;;;4983890;28;20218;-66
2021/03/27 09:23:37;;;;;;;33.33;26.27;;;15.70;52.30;;;;;;4999510;28;20053;-65
2021/03/27 09:26:21;;;;;;;35.25;28.00;;;15.80;52.60;;;;;;5007490;28;20599;-66
2021/03/27 09:29:15;;;;;;;35.08;28.92;;;15.80;52.00;;;;;;4976821;28;20069;-64
2021/03/27 09:31:44;;;;;;;37.78;29.88;;;15.90;52.10;;;;;;5002718;28;20031;-65
2021/03/27 09:34:53;;;;;;;37.42;29.65;;;15.90;51.70;;;;;;4993578;28;20046;-63
2021/03/27 09:37:34;;;;;;;36.00;29.65;;;16.00;51.40;;;;;;4978948;28;20037;-66
2021/03/27 09:40:14;;;;;;;40.42;29.92;;;16.00;51.00;;;;;;4994348;28;20057;-63
2021/03/27 09:43:17;;;;;;;36.63;29.85;;;16.00;50.90;;;;;;4997854;28;20136;-63
2021/03/27 09:46:08;;;;;;;43.50;30.65;;;16.00;50.90;;;;;;4996057;28;20066;-64
2021/03/27 09:48:52;;;;;;;40.25;30.13;;;16.00;51.20;;;;;;4999508;28;20406;-65
2021/03/27 09:51:39;;;;;;;40.03;28.83;;;16.00;51.10;;;;;;4979724;28;20053;-64
2021/03/27 09:54:22;;;;;;;35.50;29.20;;;16.00;50.30;;;;;;5005779;28;20053;-66
2021/03/27 09:57:05;;;;;;;40.00;29.75;;;16.20;50.20;;;;;;4983682;28;20046;-65
2021/03/27 09:59:53;;;;;;;37.80;30.40;;;16.30;50.50;;;;;;4998590;28;20087;-65
2021/03/27 10:02:37;;;;;;;37.80;30.13;;;16.40;49.60;;;;;;4984007;28;20037;-65
2021/03/27 10:05:39;;;;;;;36.95;28.67;;;16.30;49.10;;;;;;5003918;28;20091;-65
2021/03/27 10:08:26;;;;;;;38.33;29.20;;;16.50;49.80;;;;;;4981093;28;20042;-65
2021/03/27 10:11:11;;;;;;;35.67;29.23;;;16.50;49.00;;;;;;4982315;28;20045;-64
2021/03/27 10:13:55;;;;;;;42.42;31.20;;;16.50;49.10;;;;;;5003730;28;20042;-65
2021/03/27 10:16:26;;;;;;;42.67;30.65;;;16.70;49.20;;;;;;4965208;28;20124;-65
2021/03/27 10:19:08;;;;;;;41.72;32.28;;;16.50;48.80;;;;;;5005942;28;20050;-65
2021/03/27 10:21:39;;;;;;;42.92;32.00;;;16.50;48.90;;;;;;5001803;28;20492;-65
2021/03/27 10:24:13;;;;;;;40.35;30.45;;;16.40;48.90;;;;;;5009073;28;20038;-65
2021/03/27 10:27:26;;;;;;;34.45;29.15;;;16.40;48.90;;;;;;4996966;28;20057;-65
2021/03/27 10:30:13;;;;;;;40.60;32.40;;;16.50;50.60;;;;;;4952762;28;20779;-65
2021/03/27 10:33:00;;;;;;;38.22;29.20;;;16.30;52.40;;;;;;5000406;28;20038;-64
2021/03/27 10:35:26;;;;;;;38.15;30.35;;;16.40;52.10;;;;;;4978947;28;20567;-64
2021/03/27 10:37:54;;;;;;;36.25;30.73;;;16.30;51.10;;;;;;4999031;28;20133;-65
2021/03/27 10:40:37;;;;;;;37.60;28.98;;;16.40;51.50;;;;;;5009399;28;20505;-65
2021/03/27 10:43:22;;;;;;;32.85;28.23;;;16.50;51.30;;;;;;5003359;28;20046;-65
2021/03/27 10:45:55;;;;;;;32.70;26.08;;;16.90;50.20;;;;;;4982811;28;20042;-65
2021/03/27 10:48:25;;;;;;;32.15;27.05;;;16.90;48.40;;;;;;5005320;28;20072;-65
2021/03/27 10:50:59;;;;;;;31.15;26.75;;;17.20;48.80;;;;;;5008420;28;20034;-66
2021/03/27 10:54:00;;;;;;;37.58;28.65;;;17.40;47.20;;;;;;5003535;28;20118;-65
2021/03/27 10:56:57;;;;;;;31.65;26.58;;;17.60;47.40;;;;;;4971927;28;20037;-65
2021/03/27 10:59:35;;;;;;;38.75;28.13;;;18.00;45.70;;;;;;4980721;28;20164;-66
2021/03/27 11:02:31;;;;;;;35.60;26.48;;;18.00;45.50;;;;;;5004018;28;20053;-66
2021/03/27 11:05:24;;;;;;;31.15;24.23;;;18.10;44.80;;;;;;4983955;28;20041;-65
2021/03/27 11:08:21;;;;;;;30.02;24.15;;;18.50;43.80;;;;;;4980953;28;20093;-64
2021/03/27 11:11:00;;;;;;;29.98;24.40;;;18.50;42.50;;;;;;4982961;28;20035;-64
2021/03/27 11:13:56;;;;;;;27.42;22.67;;;18.70;43.70;;;;;;4995731;28;20064;-64
2021/03/27 11:16:43;;;;;;;29.33;21.73;;;19.10;41.60;;;;;;4979678;28;20052;-66
2021/03/27 11:19:44;;;;;;;25.33;19.73;;;19.10;41.60;;;;;;4999691;28;20049;-65
2021/03/27 11:22:28;;;;;;;23.40;20.45;;;19.00;40.70;;;;;;4978362;28;20053;-65
2021/03/27 11:25:37;;;;;;;26.90;22.23;;;19.00;40.90;;;;;;4969850;28;20145;-65
2021/03/27 11:28:25;;;;;;;27.13;21.67;;;19.30;40.90;;;;;;4976850;28;20536;-65
2021/03/27 11:31:30;;;;;;;26.42;21.60;;;19.20;41.30;;;;;;4977794;28;20038;-64
2021/03/27 11:34:04;;;;;;;26.48;20.55;;;19.10;40.90;;;;;;4965071;28;20459;-65
2021/03/27 11:36:45;;;;;;;20.25;17.55;;;19.10;41.40;;;;;;5009913;28;20088;-65
2021/03/27 11:39:13;;;;;;;27.00;18.70;;;19.60;39.90;;;;;;4997691;28;20104;-64
2021/03/27 11:41:57;;;;;;;24.50;19.38;;;19.50;40.70;;;;;;5009317;28;20045;-65
2021/03/27 11:44:41;;;;;;;24.95;21.73;;;19.30;40.60;;;;;;4962770;28;20042;-65
2021/03/27 11:47:32;;;;;;;25.25;22.48;;;19.10;41.40;;;;;;5007971;28;20038;-65
2021/03/27 11:50:18;;;;;;;31.95;22.83;;;18.90;41.60;;;;;;4980492;28;20070;-65
2021/03/27 11:52:53;;;;;;;27.90;23.73;;;18.80;41.80;;;;;;5003270;28;20034;-64
2021/03/27 11:55:29;;;;;;;30.70;23.98;;;18.90;42.10;;;;;;5001864;28;20053;-65
2021/03/27 11:57:55;;;;;;;30.33;22.92;;;18.70;42.10;;;;;;5000556;28;20034;-65
2021/03/27 12:01:06;;;;;;;26.83;22.30;;;18.80;42.30;;;;;;4997134;28;20042;-65
2021/03/27 12:03:53;;;;;;;28.00;22.85;;;18.60;42.10;;;;;;4977868;28;20041;-65
2021/03/27 12:06:33;;;;;;;26.90;22.42;;;18.40;42.80;;;;;;4942134;28;20045;-64
2021/03/27 12:09:02;;;;;;;28.02;22.88;;;18.60;42.80;;;;;;4995890;28;20436;-65
2021/03/27 12:11:55;;;;;;;23.30;18.98;;;18.40;43.10;;;;;;4998776;28;20080;-65
2021/03/27 12:14:39;;;;;;;25.52;21.08;;;18.80;42.50;;;;;;4963279;28;20061;-64
2021/03/27 12:17:32;;;;;;;23.05;19.10;;;18.60;43.00;;;;;;4993704;28;20137;-64
2021/03/27 12:20:19;;;;;;;24.40;19.65;;;18.50;42.50;;;;;;4975582;28;20034;-65
2021/03/27 12:23:07;;;;;;;26.50;20.27;;;18.30;43.10;;;;;;5000568;28;20508;-65
2021/03/27 12:25:46;;;;;;;21.33;17.85;;;18.40;43.10;;;;;;4998058;28;20503;-63
2021/03/27 12:28:35;;;;;;;18.20;16.27;;;18.10;43.90;;;;;;5003068;28;20369;-64
2021/03/27 12:31:25;;;;;;;17.70;15.63;;;17.90;44.60;;;;;;4996632;28;22721;-65
2021/03/27 12:34:15;;;;;;;19.65;15.52;;;18.00;44.80;;;;;;4986506;28;20034;-65
2021/03/27 12:36:51;;;;;;;18.45;15.60;;;17.90;44.20;;;;;;5004128;28;20034;-64
2021/03/27 12:39:31;;;;;;;16.90;13.00;;;17.90;44.10;;;;;;5004113;28;20061;-65
2021/03/27 12:42:09;;;;;;;15.70;13.13;;;18.20;44.40;;;;;;5006085;28;20038;-65
2021/03/27 12:44:51;;;;;;;19.42;17.30;;;18.20;43.80;;;;;;5004471;28;20041;-66
2021/03/27 12:47:49;;;;;;;20.83;18.63;;;18.20;43.40;;;;;;4995489;28;20042;-65
2021/03/27 12:50:33;;;;;;;20.40;17.38;;;18.00;43.80;;;;;;4985019;28;20049;-65
2021/03/27 12:53:16;;;;;;;20.77;17.80;;;18.00;44.10;;;;;;5002276;28;20109;-65
2021/03/27 12:56:12;;;;;;;18.55;16.58;;;18.20;43.40;;;;;;5006358;28;20153;-64
2021/03/27 12:59:02;;;;;;;21.45;18.83;;;17.60;44.10;;;;;;5009602;28;20545;-65
2021/03/27 13:01:31;;;;;;;18.67;16.85;;;17.70;44.10;;;;;;4981719;28;20050;-65
2021/03/27 13:04:22;;;;;;;22.08;18.52;;;18.00;44.20;;;;;;5011176;28;20411;-65
2021/03/27 13:07:01;;;;;;;20.27;17.38;;;18.10;44.20;;;;;;4982144;28;20048;-65
2021/03/27 13:09:51;;;;;;;20.65;17.67;;;18.00;44.40;;;;;;5011600;28;20381;-65
2021/03/27 13:12:27;;;;;;;24.63;18.98;;;17.80;44.60;;;;;;4959879;28;20412;-66
2021/03/27 13:15:23;;;;;;;22.73;20.30;;;17.70;45.00;;;;;;5009268;28;20038;-65
2021/03/27 13:18:39;;;;;;;25.60;19.77;;;17.50;45.00;;;;;;4977806;28;20022;-65
2021/03/27 13:21:10;;;;;;;24.48;20.63;;;;;;;;;;4969970;28;20121;-65
2021/03/27 13:23:45;;;;;;;21.85;19.42;;;17.60;76.90;;;;;;5004039;28;20069;-64
2021/03/27 13:26:22;;;;;;;22.13;18.92;;;17.60;71.80;;;;;;5007476;28;20515;-62
2021/03/27 13:28:59;;;;;;;23.55;19.75;;;17.60;71.20;;;;;;4999624;28;20049;-65
2021/03/27 13:31:40;;;;;;;23.15;20.48;;;17.60;72.50;;;;;;5005730;28;20065;-65
2021/03/27 13:34:09;;;;;;;23.20;20.65;;;17.60;73.90;;;;;;5001740;28;20480;-64
2021/03/27 13:36:44;;;;;;;25.50;21.27;;;17.50;73.40;;;;;;5008673;28;20123;-65
2021/03/27 13:39:37;;;;;;;24.40;18.85;;;17.70;74.20;;;;;;5001737;28;20048;-65
2021/03/27 13:42:12;;;;;;;26.55;20.58;;;17.70;73.50;;;;;;4984754;28;20133;-65
2021/03/27 13:45:00;;;;;;;;;;;17.80;57.60;;;;;;4999846;28;20042;-65
2021/03/27 13:47:37;;;;;;;25.67;20.48;;;17.90;57.50;;;;;;4998422;28;19953;-64
2021/03/27 13:50:21;;;;;;;25.55;19.95;;;17.70;58.10;;;;;;5000479;28;20034;-64
2021/03/27 13:53:13;;;;;;;23.58;20.35;;;17.90;58.30;;;;;;4981275;28;20096;-64